Aneta, North Dakota
Current Conditions -  °F | °C
As of 10:58 PM on Wednesday 22 Oct 2014 (Local Time) from KRDR Reporting Station
Clear Clear  
Wind Chill:   Ceiling: Unl
Heat Index:   Visibility: 10mi
Dew Point:   Wind: 10mph
Humidity: 99%   Direction: 210°SSW
Pressure: 29.85"   Gusts: NA
Location:  47.68°N, 97.99°W
Report Text: KRDR 230358Z AUTO 21009KT 10SM CLR 10/09 A2985 RMK AO2 SLP116 T00950094
Loading
Personal Weather Stations






























Interactive Weather Map
Tropical Storm Tracking
New forecast layout! Learn more

10-Day Weather Forecast

Advertisements
Track Severe Weather on mobile